Cocoa, Florida
Current Conditions -  °F | °C
As of 4:58 PM on Sunday 25 Jan 2015 (Local Time) from KCOF Reporting Station
Clear Clear  
Wind Chill: 60°   Ceiling: Unl
Heat Index: 60°   Visibility: 10mi
Dew Point: 38°   Wind: 6mph
Humidity: 44%   Direction: 120°ESE
Pressure: 29.98"   Gusts: NA
Location:  28.35°N, 80.73°W
Report Text: KCOF 252158Z AUTO 12005KT 10SM CLR 16/03 A2998 RMK AO2 SLP157 T01580034 CHINO RWY02 $
Loading
Personal Weather Stations






























Interactive Weather Map New forecast layout! Learn more

10-Day Weather Forecast

Advertisements
Track Severe Weather on mobile